sensor_id;sensor_type;location;lat;lon;timestamp;pressure;altitude;pressure_sealevel;temperature;humidity
44359;BME280;30077;52.474;13.326;2023-02-12T00:03:26;102694.16;;;6.61;100.00
44359;BME280;30077;52.474;13.326;2023-02-12T00:08:27;102686.19;;;6.61;100.00
44359;BME280;30077;52.474;13.326;2023-02-12T00:13:29;102696.78;;;6.58;100.00
44359;BME280;30077;52.474;13.326;2023-02-12T00:18:29;102717.13;;;6.58;100.00
44359;BME280;30077;52.474;13.326;2023-02-12T00:23:29;102708.25;;;6.57;100.00
44359;BME280;30077;52.474;13.326;2023-02-12T00:28:30;102718.88;;;6.54;100.00
44359;BME280;30077;52.474;13.326;2023-02-12T00:33:30;102717.06;;;6.51;100.00
44359;BME280;30077;52.474;13.326;2023-02-12T00:38:30;102712.69;;;6.58;100.00
44359;BME280;30077;52.474;13.326;2023-02-12T00:43:30;102719.72;;;6.51;100.00
44359;BME280;30077;52.474;13.326;2023-02-12T00:48:30;102721.47;;;6.48;100.00
44359;BME280;30077;52.474;13.326;2023-02-12T00:53:31;102728.56;;;6.47;100.00
44359;BME280;30077;52.474;13.326;2023-02-12T00:58:31;102741.81;;;6.49;100.00
44359;BME280;30077;52.474;13.326;2023-02-12T01:03:31;102730.31;;;6.45;100.00
44359;BME280;30077;52.474;13.326;2023-02-12T01:08:32;102727.69;;;6.47;100.00
44359;BME280;30077;52.474;13.326;2023-02-12T01:13:33;102739.16;;;6.47;100.00
44359;BME280;30077;52.474;13.326;2023-02-12T01:18:34;102743.53;;;6.41;100.00
44359;BME280;30077;52.474;13.326;2023-02-12T01:23:34;102747.97;;;6.42;100.00
44359;BME280;30077;52.474;13.326;2023-02-12T01:28:35;102746.19;;;6.41;100.00
44359;BME280;30077;52.474;13.326;2023-02-12T01:33:35;102750.63;;;6.45;100.00
44359;BME280;30077;52.474;13.326;2023-02-12T01:38:36;102751.50;;;6.42;100.00
44359;BME280;30077;52.474;13.326;2023-02-12T01:43:36;102763.91;;;6.43;100.00
44359;BME280;30077;52.474;13.326;2023-02-12T01:48:41;102765.69;;;6.50;100.00
44359;BME280;30077;52.474;13.326;2023-02-12T01:53:43;102778.91;;;6.46;100.00
44359;BME280;30077;52.474;13.326;2023-02-12T01:58:45;102772.69;;;6.42;100.00
44359;BME280;30077;52.474;13.326;2023-02-12T02:03:47;102777.13;;;6.42;100.00
44359;BME280;30077;52.474;13.326;2023-02-12T02:08:48;102772.72;;;6.45;100.00
44359;BME280;30077;52.474;13.326;2023-02-12T02:13:49;102784.25;;;6.52;100.00
44359;BME280;30077;52.474;13.326;2023-02-12T02:19:12;102784.19;;;6.40;100.00
44359;BME280;30077;52.474;13.326;2023-02-12T02:24:23;102768.28;;;6.40;100.00
44359;BME280;30077;52.474;13.326;2023-02-12T02:29:40;102780.66;;;6.41;100.00
44359;BME280;30077;52.474;13.326;2023-02-12T02:34:49;102778.84;;;6.34;100.00
44359;BME280;30077;52.474;13.326;2023-02-12T02:45:14;102791.19;;;6.29;100.00
44359;BME280;30077;52.474;13.326;2023-02-12T02:50:22;102786.78;;;6.29;100.00
44359;BME280;30077;52.474;13.326;2023-02-12T02:55:23;102791.25;;;6.36;100.00
44359;BME280;30077;52.474;13.326;2023-02-12T03:00:30;102791.25;;;6.38;100.00
44359;BME280;30077;52.474;13.326;2023-02-12T03:05:34;102792.13;;;6.37;100.00
44359;BME280;30077;52.474;13.326;2023-02-12T03:10:43;102805.34;;;6.34;100.00
44359;BME280;30077;52.474;13.326;2023-02-12T03:15:46;102808.88;;;6.33;100.00
44359;BME280;30077;52.474;13.326;2023-02-12T03:20:50;102815.97;;;6.34;100.00
44359;BME280;30077;52.474;13.326;2023-02-12T03:25:53;102823.91;;;6.32;100.00
44359;BME280;30077;52.474;13.326;2023-02-12T03:31:02;102823.88;;;6.31;100.00
44359;BME280;30077;52.474;13.326;2023-02-12T03:41:18;102820.38;;;6.33;100.00
44359;BME280;30077;52.474;13.326;2023-02-12T03:51:43;102843.38;;;6.36;100.00
44359;BME280;30077;52.474;13.326;2023-02-12T03:56:51;102831.88;;;6.37;100.00
44359;BME280;30077;52.474;13.326;2023-02-12T04:01:53;102845.13;;;6.34;100.00
44359;BME280;30077;52.474;13.326;2023-02-12T04:06:54;102856.63;;;6.36;100.00
44359;BME280;30077;52.474;13.326;2023-02-12T04:17:13;102861.97;;;6.42;100.00
44359;BME280;30077;52.474;13.326;2023-02-12T04:27:24;102867.25;;;6.39;100.00
44359;BME280;30077;52.474;13.326;2023-02-12T04:32:32;102865.44;;;6.35;100.00
44359;BME280;30077;52.474;13.326;2023-02-12T04:42:47;102861.94;;;6.36;100.00
44359;BME280;30077;52.474;13.326;2023-02-12T04:47:48;102863.72;;;6.37;100.00
44359;BME280;30077;52.474;13.326;2023-02-12T04:52:48;102870.72;;;6.29;100.00
44359;BME280;30077;52.474;13.326;2023-02-12T04:57:48;102858.28;;;6.21;100.00
44359;BME280;30077;52.474;13.326;2023-02-12T05:02:48;102859.19;;;6.25;100.00
44359;BME280;30077;52.474;13.326;2023-02-12T05:07:48;102867.09;;;6.20;100.00
44359;BME280;30077;52.474;13.326;2023-02-12T05:12:52;102872.41;;;6.20;100.00
44359;BME280;30077;52.474;13.326;2023-02-12T05:17:52;102870.59;;;6.16;100.00
44359;BME280;30077;52.474;13.326;2023-02-12T05:22:52;102867.94;;;6.16;100.00
44359;BME280;30077;52.474;13.326;2023-02-12T05:27:52;102873.31;;;6.21;100.00
44359;BME280;30077;52.474;13.326;2023-02-12T05:32:55;102881.22;;;6.19;100.00
44359;BME280;30077;52.474;13.326;2023-02-12T05:37:55;102883.00;;;6.17;100.00
44359;BME280;30077;52.474;13.326;2023-02-12T05:42:55;102890.09;;;6.21;100.00
44359;BME280;30077;52.474;13.326;2023-02-12T05:47:55;102893.59;;;6.20;100.00
44359;BME280;30077;52.474;13.326;2023-02-12T05:52:56;102890.09;;;6.21;100.00
44359;BME280;30077;52.474;13.326;2023-02-12T05:57:56;102888.31;;;6.17;100.00
44359;BME280;30077;52.474;13.326;2023-02-12T06:02:56;102883.03;;;6.23;100.00
44359;BME280;30077;52.474;13.326;2023-02-12T06:07:56;102889.22;;;6.24;100.00
44359;BME280;30077;52.474;13.326;2023-02-12T06:12:56;102887.44;;;6.23;100.00
44359;BME280;30077;52.474;13.326;2023-02-12T06:17:57;102902.47;;;6.24;100.00
44359;BME280;30077;52.474;13.326;2023-02-12T06:22:57;102907.81;;;6.25;100.00
44359;BME280;30077;52.474;13.326;2023-02-12T06:27:57;102929.00;;;6.25;100.00
44359;BME280;30077;52.474;13.326;2023-02-12T06:32:57;102934.31;;;6.25;100.00
44359;BME280;30077;52.474;13.326;2023-02-12T06:37:57;102944.91;;;6.25;100.00
44359;BME280;30077;52.474;13.326;2023-02-12T06:42:58;102943.13;;;6.24;100.00
44359;BME280;30077;52.474;13.326;2023-02-12T06:47:58;102946.69;;;6.26;100.00
44359;BME280;30077;52.474;13.326;2023-02-12T06:52:58;102960.84;;;6.29;100.00
44359;BME280;30077;52.474;13.326;2023-02-12T06:57:58;102971.47;;;6.32;100.00
44359;BME280;30077;52.474;13.326;2023-02-12T07:02:59;102969.75;;;6.37;100.00
44359;BME280;30077;52.474;13.326;2023-02-12T07:07:59;102982.16;;;6.41;100.00
44359;BME280;30077;52.474;13.326;2023-02-12T07:12:59;102975.13;;;6.43;100.00
44359;BME280;30077;52.474;13.326;2023-02-12T07:17:59;102973.28;;;6.39;100.00
44359;BME280;30077;52.474;13.326;2023-02-12T07:23:00;102982.19;;;6.44;100.00
44359;BME280;30077;52.474;13.326;2023-02-12T07:28:00;102992.75;;;6.42;100.00
44359;BME280;30077;52.474;13.326;2023-02-12T07:33:00;102994.56;;;6.45;100.00
44359;BME280;30077;52.474;13.326;2023-02-12T07:38:00;102989.31;;;6.49;100.00
44359;BME280;30077;52.474;13.326;2023-02-12T07:43:00;102992.00;;;6.54;100.00
44359;BME280;30077;52.474;13.326;2023-02-12T07:48:01;102993.88;;;6.66;100.00
44359;BME280;30077;52.474;13.326;2023-02-12T07:53:01;102991.28;;;6.73;100.00
44359;BME280;30077;52.474;13.326;2023-02-12T07:58:01;102994.91;;;6.85;100.00
44359;BME280;30077;52.474;13.326;2023-02-12T08:03:01;103000.28;;;6.97;100.00
44359;BME280;30077;52.474;13.326;2023-02-12T08:08:02;103007.44;;;7.04;100.00
44359;BME280;30077;52.474;13.326;2023-02-12T08:13:02;103012.84;;;7.16;100.00
44359;BME280;30077;52.474;13.326;2023-02-12T08:18:02;103017.31;;;7.23;100.00
44359;BME280;30077;52.474;13.326;2023-02-12T08:23:02;103023.53;;;7.29;100.00
44359;BME280;30077;52.474;13.326;2023-02-12T08:28:03;103028.03;;;7.40;100.00
44359;BME280;30077;52.474;13.326;2023-02-12T08:33:03;103034.25;;;7.47;100.00
44359;BME280;30077;52.474;13.326;2023-02-12T08:38:03;103052.00;;;7.54;100.00
44359;BME280;30077;52.474;13.326;2023-02-12T08:43:03;103049.38;;;7.56;100.00
44359;BME280;30077;52.474;13.326;2023-02-12T08:48:03;103059.13;;;7.58;100.00
44359;BME280;30077;52.474;13.326;2023-02-12T08:53:03;103062.69;;;7.60;100.00
44359;BME280;30077;52.474;13.326;2023-02-12T08:58:04;103073.31;;;7.65;100.00
44359;BME280;30077;52.474;13.326;2023-02-12T09:03:04;103073.34;;;7.66;100.00
44359;BME280;30077;52.474;13.326;2023-02-12T09:08:04;103074.25;;;7.76;100.00
44359;BME280;30077;52.474;13.326;2023-02-12T09:13:04;103078.75;;;7.85;100.00
44359;BME280;30077;52.474;13.326;2023-02-12T09:18:05;103075.22;;;7.84;100.00
44359;BME280;30077;52.474;13.326;2023-02-12T09:23:06;103086.72;;;7.88;100.00
44359;BME280;30077;52.474;13.326;2023-02-12T09:28:06;103092.19;;;8.14;100.00
44359;BME280;30077;52.474;13.326;2023-02-12T09:33:07;103084.22;;;8.28;100.00
44359;BME280;30077;52.474;13.326;2023-02-12T09:38:07;103094.88;;;8.34;100.00
44359;BME280;30077;52.474;13.326;2023-02-12T09:43:14;103098.44;;;8.30;100.00
44359;BME280;30077;52.474;13.326;2023-02-12T09:48:24;103109.19;;;8.57;100.00
44359;BME280;30077;52.474;13.326;2023-02-12T09:53:30;103110.97;;;8.74;100.00
44359;BME280;30077;52.474;13.326;2023-02-12T09:58:41;103111.88;;;8.74;100.00
44359;BME280;30077;52.474;13.326;2023-02-12T10:03:43;103111.00;;;8.80;100.00
44359;BME280;30077;52.474;13.326;2023-02-12T10:08:54;103121.63;;;8.86;100.00
44359;BME280;30077;52.474;13.326;2023-02-12T10:14:33;103123.44;;;8.99;100.00
44359;BME280;30077;52.474;13.326;2023-02-12T10:19:31;103115.44;;;9.22;100.00
44359;BME280;30077;52.474;13.326;2023-02-12T10:29:50;103105.69;;;9.00;100.00
44359;BME280;30077;52.474;13.326;2023-02-12T10:34:51;103108.34;;;8.80;100.00
44359;BME280;30077;52.474;13.326;2023-02-12T10:39:56;103106.53;;;8.57;100.00
44359;BME280;30077;52.474;13.326;2023-02-12T10:44:58;103104.63;;;8.35;100.00
44359;BME280;30077;52.474;13.326;2023-02-12T10:49:59;103105.50;;;8.31;100.00
44359;BME280;30077;52.474;13.326;2023-02-12T10:55:00;103104.75;;;8.62;100.00
44359;BME280;30077;52.474;13.326;2023-02-12T11:05:23;103102.16;;;8.87;100.00
44359;BME280;30077;52.474;13.326;2023-02-12T11:10:28;103106.53;;;8.62;100.00
44359;BME280;30077;52.474;13.326;2023-02-12T11:15:29;103111.81;;;8.45;100.00
44359;BME280;30077;52.474;13.326;2023-02-12T11:20:38;103107.38;;;8.47;100.00
44359;BME280;30077;52.474;13.326;2023-02-12T11:25:40;103097.66;;;8.51;100.00
44359;BME280;30077;52.474;13.326;2023-02-12T11:30:54;103105.50;;;8.26;100.00
44359;BME280;30077;52.474;13.326;2023-02-12T11:36:02;103098.31;;;7.99;100.00
44359;BME280;30077;52.474;13.326;2023-02-12T11:41:05;103103.69;;;8.20;100.00
44359;BME280;30077;52.474;13.326;2023-02-12T11:46:06;103095.88;;;8.62;100.00
44359;BME280;30077;52.474;13.326;2023-02-12T11:51:09;103102.16;;;9.05;100.00
44359;BME280;30077;52.474;13.326;2023-02-12T11:56:17;103098.59;;;8.97;100.00
44359;BME280;30077;52.474;13.326;2023-02-12T12:01:28;103097.69;;;8.80;100.00
44359;BME280;30077;52.474;13.326;2023-02-12T12:16:58;103089.63;;;8.49;100.00
44359;BME280;30077;52.474;13.326;2023-02-12T12:22:34;103076.34;;;8.48;100.00
44359;BME280;30077;52.474;13.326;2023-02-12T12:27:39;103078.16;;;8.70;100.00
44359;BME280;30077;52.474;13.326;2023-02-12T12:32:58;103073.72;;;8.77;100.00
44359;BME280;30077;52.474;13.326;2023-02-12T12:38:07;103076.41;;;8.83;100.00
44359;BME280;30077;52.474;13.326;2023-02-12T12:43:29;103055.09;;;9.06;100.00
44359;BME280;30077;52.474;13.326;2023-02-12T13:09:34;103055.97;;;9.14;100.00
44359;BME280;30077;52.474;13.326;2023-02-12T13:14:51;103061.31;;;9.00;100.00
44359;BME280;30077;52.474;13.326;2023-02-12T13:20:06;103052.47;;;8.75;100.00
44359;BME280;30077;52.474;13.326;2023-02-12T13:30:21;103049.78;;;8.87;100.00
44359;BME280;30077;52.474;13.326;2023-02-12T13:35:23;103041.78;;;9.07;100.00
44359;BME280;30077;52.474;13.326;2023-02-12T13:40:25;103035.56;;;9.13;100.00
44359;BME280;30077;52.474;13.326;2023-02-12T13:50:40;103040.00;;;9.31;100.00
44359;BME280;30077;52.474;13.326;2023-02-12T14:06:07;103027.53;;;9.33;100.00
44359;BME280;30077;52.474;13.326;2023-02-12T14:11:10;103032.81;;;9.63;100.00
44359;BME280;30077;52.474;13.326;2023-02-12T14:16:19;103027.41;;;9.76;100.00
44359;BME280;30077;52.474;13.326;2023-02-12T14:26:20;103035.31;;;10.00;100.00
44359;BME280;30077;52.474;13.326;2023-02-12T14:41:35;103036.34;;;9.73;100.00
44359;BME280;30077;52.474;13.326;2023-02-12T14:46:47;103038.09;;;9.73;100.00
44359;BME280;30077;52.474;13.326;2023-02-12T14:51:56;103035.38;;;9.83;100.00
44359;BME280;30077;52.474;13.326;2023-02-12T14:57:05;103029.16;;;9.86;100.00
44359;BME280;30077;52.474;13.326;2023-02-12T15:02:07;103032.72;;;9.82;100.00
44359;BME280;30077;52.474;13.326;2023-02-12T15:07:19;103031.91;;;9.66;100.00
44359;BME280;30077;52.474;13.326;2023-02-12T15:12:26;103032.81;;;9.54;100.00
44359;BME280;30077;52.474;13.326;2023-02-12T15:17:31;103031.97;;;9.40;100.00
44359;BME280;30077;52.474;13.326;2023-02-12T15:22:34;103035.53;;;9.31;100.00
44359;BME280;30077;52.474;13.326;2023-02-12T15:27:35;103034.66;;;9.22;100.00
44359;BME280;30077;52.474;13.326;2023-02-12T15:32:35;103040.00;;;9.12;100.00
44359;BME280;30077;52.474;13.326;2023-02-12T15:37:37;103045.34;;;9.09;100.00
44359;BME280;30077;52.474;13.326;2023-02-12T15:42:38;103032.91;;;8.99;100.00
44359;BME280;30077;52.474;13.326;2023-02-12T15:47:42;103040.03;;;8.91;100.00
44359;BME280;30077;52.474;13.326;2023-02-12T15:52:43;103041.78;;;8.77;100.00
44359;BME280;30077;52.474;13.326;2023-02-12T15:57:51;103050.66;;;8.65;100.00
44359;BME280;30077;52.474;13.326;2023-02-12T16:02:51;103050.66;;;8.57;100.00
44359;BME280;30077;52.474;13.326;2023-02-12T16:07:52;103062.16;;;8.49;100.00
44359;BME280;30077;52.474;13.326;2023-02-12T16:12:53;103059.50;;;8.44;100.00
44359;BME280;30077;52.474;13.326;2023-02-12T16:17:53;103067.47;;;8.41;100.00
44359;BME280;30077;52.474;13.326;2023-02-12T16:22:55;103061.22;;;8.36;100.00
44359;BME280;30077;52.474;13.326;2023-02-12T16:28:00;103058.56;;;8.36;100.00
44359;BME280;30077;52.474;13.326;2023-02-12T16:33:01;103062.94;;;8.28;100.00
44359;BME280;30077;52.474;13.326;2023-02-12T16:38:03;103067.38;;;8.23;100.00
44359;BME280;30077;52.474;13.326;2023-02-12T16:43:22;103070.06;;;8.29;100.00
44359;BME280;30077;52.474;13.326;2023-02-12T16:48:23;103069.19;;;8.28;100.00
44359;BME280;30077;52.474;13.326;2023-02-12T16:53:27;103075.34;;;8.19;100.00
44359;BME280;30077;52.474;13.326;2023-02-12T16:58:30;103074.44;;;8.14;100.00
44359;BME280;30077;52.474;13.326;2023-02-12T17:03:31;103080.66;;;8.13;100.00
44359;BME280;30077;52.474;13.326;2023-02-12T17:08:32;103079.75;;;8.14;100.00
44359;BME280;30077;52.474;13.326;2023-02-12T17:13:32;103089.50;;;8.11;100.00
44359;BME280;30077;52.474;13.326;2023-02-12T17:18:32;103095.69;;;8.13;100.00
44359;BME280;30077;52.474;13.326;2023-02-12T17:23:34;103091.28;;;8.13;100.00
44359;BME280;30077;52.474;13.326;2023-02-12T17:28:34;103096.56;;;8.07;100.00
44359;BME280;30077;52.474;13.326;2023-02-12T17:33:35;103098.31;;;8.05;100.00
44359;BME280;30077;52.474;13.326;2023-02-12T17:38:35;103100.97;;;8.01;100.00
44359;BME280;30077;52.474;13.326;2023-02-12T17:43:35;103094.75;;;8.02;100.00
44359;BME280;30077;52.474;13.326;2023-02-12T17:48:35;103101.88;;;8.04;100.00
44359;BME280;30077;52.474;13.326;2023-02-12T17:53:36;103108.91;;;7.93;100.00
44359;BME280;30077;52.474;13.326;2023-02-12T17:58:37;103115.09;;;7.84;100.00
44359;BME280;30077;52.474;13.326;2023-02-12T18:03:38;103107.03;;;7.77;100.00
44359;BME280;30077;52.474;13.326;2023-02-12T18:08:43;103112.34;;;7.70;100.00
44359;BME280;30077;52.474;13.326;2023-02-12T18:13:44;103113.19;;;7.69;100.00
44359;BME280;30077;52.474;13.326;2023-02-12T18:18:44;103107.91;;;7.71;100.00
44359;BME280;30077;52.474;13.326;2023-02-12T18:23:44;103107.03;;;7.70;100.00
44359;BME280;30077;52.474;13.326;2023-02-12T18:28:45;103107.91;;;7.72;100.00
44359;BME280;30077;52.474;13.326;2023-02-12T18:33:45;103108.81;;;7.75;100.00
44359;BME280;30077;52.474;13.326;2023-02-12T18:38:47;103112.38;;;7.74;100.00
44359;BME280;30077;52.474;13.326;2023-02-12T18:43:47;103108.78;;;7.71;100.00
44359;BME280;30077;52.474;13.326;2023-02-12T18:48:48;103101.72;;;7.70;100.00
44359;BME280;30077;52.474;13.326;2023-02-12T18:53:52;103092.81;;;7.68;100.00
44359;BME280;30077;52.474;13.326;2023-02-12T18:58:53;103102.56;;;7.69;100.00
44359;BME280;30077;52.474;13.326;2023-02-12T19:03:55;103105.22;;;7.69;100.00
44359;BME280;30077;52.474;13.326;2023-02-12T19:08:57;103098.13;;;7.68;100.00
44359;BME280;30077;52.474;13.326;2023-02-12T19:13:57;103098.13;;;7.68;100.00
44359;BME280;30077;52.474;13.326;2023-02-12T19:18:57;103098.13;;;7.68;100.00
44359;BME280;30077;52.474;13.326;2023-02-12T19:24:00;103100.78;;;7.68;100.00
44359;BME280;30077;52.474;13.326;2023-02-12T19:29:00;103097.25;;;7.69;100.00
44359;BME280;30077;52.474;13.326;2023-02-12T19:34:02;103103.44;;;7.68;100.00
44359;BME280;30077;52.474;13.326;2023-02-12T19:39:03;103100.78;;;7.68;100.00
44359;BME280;30077;52.474;13.326;2023-02-12T19:44:05;103108.78;;;7.68;100.00
44359;BME280;30077;52.474;13.326;2023-02-12T19:49:06;103101.66;;;7.64;100.00
44359;BME280;30077;52.474;13.326;2023-02-12T19:54:06;103098.09;;;7.59;100.00
44359;BME280;30077;52.474;13.326;2023-02-12T19:59:09;103106.03;;;7.58;100.00
44359;BME280;30077;52.474;13.326;2023-02-12T20:04:11;103094.56;;;7.60;100.00
44359;BME280;30077;52.474;13.326;2023-02-12T20:09:12;103086.63;;;7.63;100.00
44359;BME280;30077;52.474;13.326;2023-02-12T20:14:13;103086.56;;;7.56;100.00
44359;BME280;30077;52.474;13.326;2023-02-12T20:19:34;103091.84;;;7.53;100.00
44359;BME280;30077;52.474;13.326;2023-02-12T20:24:34;103090.09;;;7.52;100.00
44359;BME280;30077;52.474;13.326;2023-02-12T20:29:36;103087.41;;;7.50;100.00
44359;BME280;30077;52.474;13.326;2023-02-12T20:34:36;103088.28;;;7.44;100.00
44359;BME280;30077;52.474;13.326;2023-02-12T20:39:36;103092.66;;;7.44;100.00
44359;BME280;30077;52.474;13.326;2023-02-12T20:44:36;103089.19;;;7.48;100.00
44359;BME280;30077;52.474;13.326;2023-02-12T20:49:36;103089.16;;;7.45;100.00
44359;BME280;30077;52.474;13.326;2023-02-12T20:54:37;103086.47;;;7.42;100.00
44359;BME280;30077;52.474;13.326;2023-02-12T20:59:39;103076.75;;;7.41;100.00
44359;BME280;30077;52.474;13.326;2023-02-12T21:04:39;103089.16;;;7.45;100.00
44359;BME280;30077;52.474;13.326;2023-02-12T21:09:39;103076.75;;;7.47;100.00
44359;BME280;30077;52.474;13.326;2023-02-12T21:14:39;103073.25;;;7.48;100.00
44359;BME280;30077;52.474;13.326;2023-02-12T21:19:39;103076.75;;;7.47;100.00
44359;BME280;30077;52.474;13.326;2023-02-12T21:24:40;103075.91;;;7.53;100.00
44359;BME280;30077;52.474;13.326;2023-02-12T21:29:40;103080.38;;;7.58;100.00
44359;BME280;30077;52.474;13.326;2023-02-12T21:34:40;103075.06;;;7.61;100.00
44359;BME280;30077;52.474;13.326;2023-02-12T21:39:40;103075.94;;;7.56;100.00
44359;BME280;30077;52.474;13.326;2023-02-12T21:44:40;103067.97;;;7.57;100.00
44359;BME280;30077;52.474;13.326;2023-02-12T21:49:40;103071.53;;;7.62;100.00
44359;BME280;30077;52.474;13.326;2023-02-12T21:54:40;103075.06;;;7.61;100.00
44359;BME280;30077;52.474;13.326;2023-02-12T21:59:41;103068.00;;;7.60;100.00
44359;BME280;30077;52.474;13.326;2023-02-12T22:04:41;103076.84;;;7.62;100.00
44359;BME280;30077;52.474;13.326;2023-02-12T22:09:44;103074.19;;;7.61;100.00
44359;BME280;30077;52.474;13.326;2023-02-12T22:14:44;103065.34;;;7.60;100.00
44359;BME280;30077;52.474;13.326;2023-02-12T22:19:44;103068.00;;;7.60;100.00
44359;BME280;30077;52.474;13.326;2023-02-12T22:24:44;103063.53;;;7.58;100.00
44359;BME280;30077;52.474;13.326;2023-02-12T22:29:44;103071.53;;;7.59;100.00
44359;BME280;30077;52.474;13.326;2023-02-12T22:34:44;103074.16;;;7.56;100.00
44359;BME280;30077;52.474;13.326;2023-02-12T22:39:44;103071.56;;;7.65;100.00
44359;BME280;30077;52.474;13.326;2023-02-12T22:44:45;103074.16;;;7.56;100.00
44359;BME280;30077;52.474;13.326;2023-02-12T22:49:45;103077.72;;;7.58;100.00
44359;BME280;30077;52.474;13.326;2023-02-12T22:54:45;103076.81;;;7.53;100.00
44359;BME280;30077;52.474;13.326;2023-02-12T22:59:46;103082.13;;;7.56;100.00
44359;BME280;30077;52.474;13.326;2023-02-12T23:04:46;103076.78;;;7.50;100.00
44359;BME280;30077;52.474;13.326;2023-02-12T23:09:46;103070.56;;;7.51;100.00
44359;BME280;30077;52.474;13.326;2023-02-12T23:14:46;103072.31;;;7.47;100.00
44359;BME280;30077;52.474;13.326;2023-02-12T23:19:47;103072.31;;;7.47;100.00
44359;BME280;30077;52.474;13.326;2023-02-12T23:24:47;103067.91;;;7.51;100.00
44359;BME280;30077;52.474;13.326;2023-02-12T23:29:47;103064.38;;;7.49;100.00
44359;BME280;30077;52.474;13.326;2023-02-12T23:34:47;103076.81;;;7.56;100.00
44359;BME280;30077;52.474;13.326;2023-02-12T23:39:47;103063.53;;;7.52;100.00
44359;BME280;30077;52.474;13.326;2023-02-12T23:44:47;103059.97;;;7.51;100.00
44359;BME280;30077;52.474;13.326;2023-02-12T23:49:48;103055.56;;;7.56;100.00
44359;BME280;30077;52.474;13.326;2023-02-12T23:54:48;103058.22;;;7.55;100.00
44359;BME280;30077;52.474;13.326;2023-02-12T23:59:48;103062.66;;;7.59;100.00
